Aurora, Illinois
Current Conditions -  °F | °C
As of 3:52 PM on Friday 31 Oct 2014 (Local Time) from KARR Reporting Station
Broken Clouds Broken Clouds  
Wind Chill: 29°   Ceiling: 5000
Heat Index: 41°   Visibility: 10mi
Dew Point: 19°   Wind: 33mph
Humidity: 41%   Direction: 350°N
Pressure: 30.24"   Gusts: 43mph
Location:  41.76°N, 88.31°W
Report Text: KARR 312052Z AUTO 35029G37KT 10SM BKN050 05/M07 A3024 RMK AO2 PK WND 34037/2014 SLP245 T00501072 53015
Loading
Personal Weather Stations






























Interactive Weather Map
Tropical Storm Tracking
New forecast layout! Learn more

10-Day Weather Forecast

Advertisements
Track Severe Weather on mobile